createdAt,value
2023-05-05T00:01:32.624Z,13.87
2023-05-05T00:03:59.508Z,13.72
2023-05-05T00:06:28.559Z,13.72
2023-05-05T00:08:56.386Z,13.65
2023-05-05T00:11:23.299Z,13.65
2023-05-05T00:13:49.960Z,13.70
2023-05-05T00:16:16.737Z,13.62
2023-05-05T00:18:44.977Z,13.60
2023-05-05T00:21:11.674Z,13.49
2023-05-05T00:23:38.461Z,13.44
2023-05-05T00:26:05.152Z,13.44
2023-05-05T00:28:32.035Z,13.61
2023-05-05T00:30:58.883Z,13.69
2023-05-05T00:33:25.940Z,13.60
2023-05-05T00:35:52.672Z,13.59
2023-05-05T00:38:19.350Z,13.62
2023-05-05T00:40:46.239Z,13.57
2023-05-05T00:43:13.132Z,13.58
2023-05-05T00:45:42.954Z,13.42
2023-05-05T00:48:10.314Z,13.50
2023-05-05T00:50:37.577Z,13.50
2023-05-05T00:53:06.517Z,13.44
2023-05-05T00:55:35.076Z,13.35
2023-05-05T00:58:03.316Z,13.48
2023-05-05T01:00:30.978Z,13.30
2023-05-05T01:02:58.009Z,13.28
2023-05-05T01:05:27.468Z,13.19
2023-05-05T01:08:29.373Z,13.21
2023-05-05T01:11:04.630Z,13.28
2023-05-05T01:13:59.307Z,13.11
2023-05-05T01:16:29.001Z,13.10
2023-05-05T01:19:08.134Z,13.09
2023-05-05T01:21:45.827Z,12.96
2023-05-05T01:24:43.711Z,12.89
2023-05-05T01:27:34.323Z,12.90
2023-05-05T01:30:22.875Z,12.80
2023-05-05T01:32:58.180Z,12.76
2023-05-05T01:35:32.123Z,12.69
2023-05-05T01:37:58.750Z,12.71
2023-05-05T01:40:28.534Z,12.71
2023-05-05T01:42:56.571Z,12.66
2023-05-05T01:45:28.667Z,12.84
2023-05-05T01:47:56.432Z,12.89
2023-05-05T01:50:24.871Z,12.82
2023-05-05T01:52:52.901Z,12.87
2023-05-05T01:55:22.421Z,12.76
2023-05-05T01:57:50.163Z,12.86
2023-05-05T02:00:19.563Z,12.95
2023-05-05T02:02:49.457Z,12.90
2023-05-05T02:05:19.436Z,12.81
2023-05-05T02:07:46.820Z,12.76
2023-05-05T02:10:14.833Z,12.71
2023-05-05T02:12:42.929Z,12.64
2023-05-05T02:15:10.911Z,12.58
2023-05-05T02:17:42.535Z,12.53
2023-05-05T02:20:12.028Z,12.43
2023-05-05T02:22:39.065Z,12.50
2023-05-05T02:25:06.728Z,12.56
2023-05-05T02:27:35.682Z,12.43
2023-05-05T02:30:07.562Z,12.42
2023-05-05T02:32:39.528Z,12.42
2023-05-05T02:35:33.398Z,12.50
2023-05-05T02:38:06.208Z,12.44
2023-05-05T02:40:40.869Z,12.51
2023-05-05T02:43:11.163Z,12.38
2023-05-05T02:45:38.560Z,12.16
2023-05-05T02:48:06.406Z,12.09
2023-05-05T02:50:37.683Z,12.00
2023-05-05T02:53:16.439Z,11.94
2023-05-05T02:55:53.565Z,11.96
2023-05-05T02:58:31.315Z,11.93
2023-05-05T03:01:21.994Z,11.94
2023-05-05T03:04:30.483Z,12.02
2023-05-05T03:06:59.967Z,12.25
2023-05-05T03:09:41.893Z,12.54
2023-05-05T03:12:11.447Z,12.70
2023-05-05T03:14:55.527Z,12.75
2023-05-05T03:17:25.866Z,12.91
2023-05-05T03:19:53.009Z,13.07
2023-05-05T03:22:20.083Z,13.44
2023-05-05T03:24:51.699Z,13.59
2023-05-05T03:27:22.307Z,13.62
2023-05-05T03:29:49.136Z,13.59
2023-05-05T03:32:16.562Z,13.62
2023-05-05T03:34:43.980Z,13.52
2023-05-05T03:37:10.840Z,13.37
2023-05-05T03:39:39.407Z,13.20
2023-05-05T03:42:08.239Z,13.13
2023-05-05T03:44:36.104Z,13.09
2023-05-05T03:47:02.791Z,12.99
2023-05-05T03:49:32.596Z,12.84
2023-05-05T03:51:59.460Z,12.82
2023-05-05T03:54:27.173Z,12.90
2023-05-05T03:56:53.840Z,12.84
2023-05-05T03:59:20.650Z,12.74
2023-05-05T04:01:49.143Z,12.64
2023-05-05T04:04:16.972Z,12.57
2023-05-05T04:06:43.660Z,12.54
2023-05-05T04:09:12.325Z,12.47
2023-05-05T04:11:39.053Z,12.49
2023-05-05T04:14:06.829Z,12.47
2023-05-05T04:16:33.885Z,12.46
2023-05-05T04:19:00.802Z,12.53
2023-05-05T04:21:27.716Z,12.55
2023-05-05T04:23:55.263Z,12.59
2023-05-05T04:26:22.401Z,12.49
2023-05-05T04:28:49.458Z,12.48
2023-05-05T04:31:17.982Z,12.50
2023-05-05T04:33:45.741Z,12.46
2023-05-05T04:36:13.350Z,12.44
2023-05-05T04:38:40.791Z,12.47
2023-05-05T04:41:07.541Z,12.37
2023-05-05T04:43:36.015Z,12.35
2023-05-05T04:46:03.017Z,12.38
2023-05-05T04:48:32.485Z,12.39
2023-05-05T04:51:04.734Z,12.75
2023-05-05T04:53:31.971Z,13.14
2023-05-05T04:56:00.668Z,13.24
2023-05-05T04:58:28.303Z,13.36
2023-05-05T05:00:55.609Z,13.32
2023-05-05T05:03:22.398Z,13.40
2023-05-05T05:05:49.317Z,13.59
2023-05-05T05:08:16.818Z,13.91
2023-05-05T05:10:44.131Z,14.01
2023-05-05T05:13:12.659Z,14.24
2023-05-05T05:15:39.955Z,14.26
2023-05-05T05:18:06.823Z,14.36
2023-05-05T05:20:33.636Z,14.49
2023-05-05T05:23:04.677Z,14.49
2023-05-05T05:25:34.392Z,14.61
2023-05-05T05:28:08.973Z,14.63
2023-05-05T05:30:41.198Z,14.74
2023-05-05T05:33:09.621Z,14.93
2023-05-05T05:35:36.537Z,15.07
2023-05-05T05:38:04.236Z,15.17
2023-05-05T05:40:31.679Z,15.30
2023-05-05T05:42:59.153Z,15.38
2023-05-05T05:45:26.879Z,15.48
2023-05-05T05:47:53.564Z,15.61
2023-05-05T05:50:20.929Z,15.75
2023-05-05T05:52:47.775Z,15.81
2023-05-05T05:55:15.345Z,15.90
2023-05-05T05:57:42.555Z,15.98
2023-05-05T06:00:11.196Z,16.06
2023-05-05T06:02:44.021Z,16.20
2023-05-05T06:05:14.383Z,16.50
2023-05-05T06:07:42.492Z,16.61
2023-05-05T06:10:25.785Z,16.87
2023-05-05T06:12:55.439Z,17.13
2023-05-05T06:15:22.568Z,17.33
2023-05-05T06:17:49.845Z,17.37
2023-05-05T06:20:16.702Z,17.51
2023-05-05T06:22:43.414Z,17.50
2023-05-05T06:25:11.134Z,17.42
2023-05-05T06:27:38.366Z,17.64
2023-05-05T06:30:06.903Z,17.59
2023-05-05T06:32:33.881Z,17.99
2023-05-05T06:35:00.670Z,18.08
2023-05-05T06:37:27.745Z,18.19
2023-05-05T06:39:54.475Z,18.23
2023-05-05T06:42:21.483Z,18.20
2023-05-05T06:44:48.124Z,18.32
2023-05-05T06:47:14.814Z,18.11
2023-05-05T06:49:41.656Z,18.04
2023-05-05T06:52:08.513Z,18.23
2023-05-05T06:54:35.193Z,18.29
2023-05-05T06:57:02.082Z,18.35
2023-05-05T06:59:28.782Z,18.41
2023-05-05T07:01:56.521Z,18.61
2023-05-05T07:04:23.559Z,18.81
2023-05-05T07:06:50.244Z,19.04
2023-05-05T07:09:17.604Z,18.91
2023-05-05T07:11:44.588Z,19.27
2023-05-05T07:14:11.405Z,19.51
2023-05-05T07:16:38.889Z,19.68
2023-05-05T07:19:06.469Z,20.07
2023-05-05T07:21:36.732Z,20.07
2023-05-05T07:24:04.020Z,20.40
2023-05-05T07:26:31.171Z,21.46
2023-05-05T07:28:59.115Z,21.87
2023-05-05T07:31:26.773Z,22.14
2023-05-05T07:33:53.940Z,21.47
2023-05-05T07:36:20.866Z,21.86
2023-05-05T07:38:47.584Z,22.06
2023-05-05T07:41:14.395Z,22.16
2023-05-05T07:43:44.765Z,22.99
2023-05-05T07:46:12.278Z,22.48
2023-05-05T07:48:41.571Z,22.67
2023-05-05T07:51:08.833Z,22.41
2023-05-05T07:53:35.586Z,22.48
2023-05-05T07:56:02.493Z,23.16
2023-05-05T07:58:29.213Z,22.86
2023-05-05T08:00:56.009Z,23.53
2023-05-05T08:03:24.874Z,22.99
2023-05-05T08:05:54.711Z,22.56
2023-05-05T08:08:25.038Z,22.68
2023-05-05T08:10:53.274Z,22.61
2023-05-05T08:13:20.610Z,22.85
2023-05-05T08:15:47.527Z,23.42
2023-05-05T08:18:14.911Z,23.00
2023-05-05T08:20:42.033Z,23.20
2023-05-05T08:23:08.813Z,23.33
2023-05-05T08:25:35.566Z,23.66
2023-05-05T08:28:02.372Z,23.25
2023-05-05T08:30:29.281Z,23.52
2023-05-05T08:32:56.572Z,23.82
2023-05-05T08:35:23.459Z,23.70
2023-05-05T08:37:51.748Z,23.84
2023-05-05T08:40:21.159Z,24.40
2023-05-05T08:42:48.182Z,23.58
2023-05-05T08:45:16.041Z,23.09
2023-05-05T08:47:43.630Z,23.43
2023-05-05T08:50:11.458Z,23.81
2023-05-05T08:52:40.713Z,24.27
2023-05-05T08:55:14.867Z,23.32
2023-05-05T08:57:48.097Z,24.72
2023-05-05T09:00:18.328Z,24.81
2023-05-05T09:02:46.688Z,24.88
2023-05-05T09:05:13.773Z,25.28
2023-05-05T09:07:41.653Z,25.55
2023-05-05T09:10:09.336Z,26.15
2023-05-05T09:12:36.305Z,25.12
2023-05-05T09:15:04.216Z,24.73
2023-05-05T09:17:31.851Z,24.85
2023-05-05T09:20:07.268Z,25.46
2023-05-05T09:22:38.069Z,25.11
2023-05-05T09:25:06.880Z,24.04
2023-05-05T09:27:41.807Z,24.69
2023-05-05T09:30:10.121Z,24.86
2023-05-05T09:32:51.202Z,25.90
2023-05-05T09:35:19.714Z,23.96
2023-05-05T09:37:46.760Z,24.25
2023-05-05T09:40:15.625Z,24.03
2023-05-05T09:42:42.485Z,23.78
2023-05-05T09:45:18.456Z,24.24
2023-05-05T09:47:46.360Z,23.63
2023-05-05T09:50:18.986Z,24.16
2023-05-05T09:52:56.292Z,24.56
2023-05-05T09:55:24.188Z,24.62
2023-05-05T09:57:50.992Z,25.31
2023-05-05T10:00:18.092Z,25.82
2023-05-05T10:02:45.705Z,26.23
2023-05-05T10:05:17.478Z,25.99
2023-05-05T10:07:46.614Z,25.76
2023-05-05T10:10:15.652Z,25.35
2023-05-05T10:12:43.303Z,26.04
2023-05-05T10:15:11.445Z,25.63
2023-05-05T10:18:02.167Z,26.31
2023-05-05T10:20:33.508Z,26.87
2023-05-05T10:23:05.564Z,26.85
2023-05-05T10:25:39.691Z,26.92
2023-05-05T10:28:07.075Z,27.52
2023-05-05T10:30:37.116Z,26.51
2023-05-05T10:33:27.288Z,26.96
2023-05-05T10:36:01.975Z,27.18
2023-05-05T10:38:32.583Z,26.94
2023-05-05T10:41:04.512Z,26.69
2023-05-05T10:43:32.168Z,26.88
2023-05-05T10:45:59.518Z,26.32
2023-05-05T10:48:39.801Z,25.60
2023-05-05T10:51:10.564Z,25.99
2023-05-05T10:53:48.998Z,27.07
2023-05-05T10:56:22.451Z,27.53
2023-05-05T10:58:58.846Z,27.06
2023-05-05T11:01:34.219Z,26.48
2023-05-05T11:04:20.748Z,26.57
2023-05-05T11:07:13.439Z,26.81
2023-05-05T11:09:55.917Z,26.59
2023-05-05T11:12:22.695Z,27.05
2023-05-05T11:15:24.280Z,25.64
2023-05-05T11:17:51.292Z,26.66
2023-05-05T11:20:18.030Z,25.59
2023-05-05T11:23:02.755Z,26.69
2023-05-05T11:25:35.870Z,25.72
2023-05-05T11:28:19.449Z,26.32
2023-05-05T11:30:55.373Z,26.58
2023-05-05T11:33:31.616Z,26.87
2023-05-05T11:36:06.657Z,26.51
2023-05-05T11:38:36.623Z,26.84
2023-05-05T11:41:26.145Z,26.09
2023-05-05T11:44:09.833Z,26.59
2023-05-05T11:46:36.718Z,25.83
2023-05-05T11:49:03.740Z,26.09
2023-05-05T11:51:31.116Z,26.46
2023-05-05T11:53:59.131Z,26.17
2023-05-05T11:56:26.140Z,26.61
2023-05-05T11:59:08.020Z,26.66
2023-05-05T12:01:35.273Z,27.79
2023-05-05T12:04:02.422Z,27.81
2023-05-05T12:06:32.812Z,27.38
2023-05-05T12:09:00.893Z,27.76
2023-05-05T12:11:27.592Z,28.15
2023-05-05T12:14:12.814Z,27.43
2023-05-05T12:16:39.845Z,26.11
2023-05-05T12:19:08.148Z,26.33
2023-05-05T12:21:35.571Z,25.70
2023-05-05T12:24:02.479Z,25.87
2023-05-05T12:26:31.623Z,25.82
2023-05-05T12:29:00.431Z,26.63
2023-05-05T12:31:40.557Z,26.31
2023-05-05T12:34:09.964Z,27.07
2023-05-05T12:36:37.678Z,27.28
2023-05-05T12:39:05.529Z,26.70
2023-05-05T12:41:33.063Z,25.96
2023-05-05T12:44:01.536Z,25.51
2023-05-05T12:46:29.874Z,25.83
2023-05-05T12:49:05.582Z,25.45
2023-05-05T12:51:33.820Z,26.14
2023-05-05T12:54:06.873Z,24.89
2023-05-05T12:56:40.877Z,24.88
2023-05-05T12:59:09.067Z,25.33
2023-05-05T13:01:37.275Z,25.82
2023-05-05T13:04:08.970Z,26.42
2023-05-05T13:06:36.316Z,26.30
2023-05-05T13:09:03.743Z,25.60
2023-05-05T13:11:30.582Z,25.70
2023-05-05T13:13:57.267Z,24.86
2023-05-05T13:16:24.055Z,24.36
2023-05-05T13:18:51.304Z,24.81
2023-05-05T13:21:18.105Z,25.34
2023-05-05T13:23:45.721Z,25.05
2023-05-05T13:26:13.687Z,24.63
2023-05-05T13:28:41.382Z,25.30
2023-05-05T13:31:08.537Z,25.68
2023-05-05T13:33:35.728Z,25.84
2023-05-05T13:36:03.501Z,24.78
2023-05-05T13:38:32.468Z,25.47
2023-05-05T13:41:00.180Z,25.00
2023-05-05T13:43:26.871Z,24.67
2023-05-05T13:45:53.871Z,24.50
2023-05-05T13:48:20.791Z,24.81
2023-05-05T13:50:47.516Z,24.58
2023-05-05T13:53:14.555Z,23.73
2023-05-05T13:55:42.205Z,24.01
2023-05-05T13:58:09.394Z,23.94
2023-05-05T14:00:36.311Z,24.02
2023-05-05T14:03:03.050Z,23.55
2023-05-05T14:05:29.864Z,23.02
2023-05-05T14:07:56.569Z,22.34
2023-05-05T14:10:23.356Z,22.24
2023-05-05T14:12:50.356Z,22.10
2023-05-05T14:15:17.184Z,22.07
2023-05-05T14:17:44.381Z,21.84
2023-05-05T14:20:11.715Z,21.91
2023-05-05T14:22:38.436Z,21.89
2023-05-05T14:25:05.995Z,21.74
2023-05-05T14:27:32.892Z,21.63
2023-05-05T14:29:59.524Z,21.82
2023-05-05T14:32:26.246Z,21.51
2023-05-05T14:34:52.982Z,21.23
2023-05-05T14:37:19.628Z,21.11
2023-05-05T14:39:46.309Z,21.01
2023-05-05T14:42:13.292Z,21.17
2023-05-05T14:44:39.915Z,21.08
2023-05-05T14:47:06.604Z,20.78
2023-05-05T14:49:33.301Z,20.74
2023-05-05T14:52:00.007Z,20.82
2023-05-05T14:54:28.818Z,20.94
2023-05-05T14:56:56.415Z,20.83
2023-05-05T14:59:23.123Z,20.77
2023-05-05T15:01:50.053Z,20.63
2023-05-05T15:04:16.763Z,20.57
2023-05-05T15:06:43.410Z,20.47
2023-05-05T15:09:10.073Z,20.54
2023-05-05T15:11:36.763Z,20.74
2023-05-05T15:14:03.448Z,20.61
2023-05-05T15:16:30.210Z,20.61
2023-05-05T15:18:56.888Z,20.72
2023-05-05T15:21:23.542Z,20.93
2023-05-05T15:23:50.366Z,21.08
2023-05-05T15:26:17.009Z,21.09
2023-05-05T15:28:43.961Z,21.16
2023-05-05T15:31:10.676Z,21.18
2023-05-05T15:33:37.444Z,21.09
2023-05-05T15:36:04.373Z,21.27
2023-05-05T15:38:31.451Z,21.27
2023-05-05T15:40:58.221Z,21.50
2023-05-05T15:43:25.083Z,21.44
2023-05-05T15:45:53.981Z,21.70
2023-05-05T15:48:20.649Z,21.46
2023-05-05T15:50:47.454Z,21.42
2023-05-05T15:53:14.176Z,21.41
2023-05-05T15:55:40.935Z,21.10
2023-05-05T15:58:07.862Z,21.36
2023-05-05T16:00:34.528Z,21.18
2023-05-05T16:03:01.620Z,21.69
2023-05-05T16:05:28.426Z,21.26
2023-05-05T16:07:55.110Z,20.89
2023-05-05T16:10:21.786Z,20.73
2023-05-05T16:12:48.844Z,20.33
2023-05-05T16:15:15.591Z,20.13
2023-05-05T16:17:42.426Z,20.50
2023-05-05T16:20:09.795Z,20.32
2023-05-05T16:22:37.102Z,20.04
2023-05-05T16:25:04.124Z,20.10
2023-05-05T16:27:30.824Z,20.06
2023-05-05T16:29:59.174Z,19.68
2023-05-05T16:32:26.565Z,20.03
2023-05-05T16:34:53.219Z,19.51
2023-05-05T16:37:19.848Z,19.77
2023-05-05T16:39:46.558Z,19.71
2023-05-05T16:44:40.600Z,19.89
2023-05-05T16:47:07.371Z,19.79
2023-05-05T16:49:34.070Z,19.81
2023-05-05T16:52:00.851Z,19.80
2023-05-05T16:54:27.522Z,19.80
2023-05-05T16:56:55.083Z,19.92
2023-05-05T16:59:21.754Z,20.14
2023-05-05T17:01:48.533Z,20.27
2023-05-05T17:04:15.324Z,20.32
2023-05-05T17:06:41.963Z,20.27
2023-05-05T17:09:08.622Z,19.85
2023-05-05T17:11:36.108Z,19.88
2023-05-05T17:14:02.731Z,19.87
2023-05-05T17:16:29.523Z,19.85
2023-05-05T17:18:56.529Z,19.82
2023-05-05T17:21:23.574Z,19.98
2023-05-05T17:23:50.530Z,19.85
2023-05-05T17:26:17.204Z,19.59
2023-05-05T17:28:43.831Z,19.49
2023-05-05T17:31:10.557Z,19.37
2023-05-05T17:33:37.266Z,19.49
2023-05-05T17:36:04.155Z,19.45
2023-05-05T17:38:30.930Z,19.53
2023-05-05T17:40:57.575Z,19.40
2023-05-05T17:43:24.285Z,19.30
2023-05-05T17:45:51.056Z,19.20
2023-05-05T17:48:17.807Z,19.18
2023-05-05T17:50:45.025Z,19.25
2023-05-05T17:53:12.065Z,18.96
2023-05-05T17:55:38.744Z,18.86
2023-05-05T17:58:05.383Z,18.86
2023-05-05T18:00:32.075Z,18.72
2023-05-05T18:02:58.777Z,18.71
2023-05-05T18:05:25.509Z,18.40
2023-05-05T18:07:52.169Z,18.44
2023-05-05T18:10:18.901Z,18.54
2023-05-05T18:12:45.873Z,18.63
2023-05-05T18:15:13.216Z,18.56
2023-05-05T18:17:39.838Z,18.40
2023-05-05T18:20:07.416Z,18.29
2023-05-05T18:22:34.554Z,18.20
2023-05-05T18:25:01.192Z,18.19
2023-05-05T18:27:28.406Z,18.10
2023-05-05T18:29:55.255Z,18.00
2023-05-05T18:32:22.035Z,17.97
2023-05-05T18:34:48.862Z,17.85
2023-05-05T18:37:15.726Z,17.82
2023-05-05T18:39:44.061Z,17.68
2023-05-05T18:42:13.110Z,17.61
2023-05-05T18:44:39.968Z,17.58
2023-05-05T18:47:07.099Z,17.42
2023-05-05T18:49:34.095Z,17.31
2023-05-05T18:52:01.123Z,17.36
2023-05-05T18:54:27.813Z,17.27
2023-05-05T18:56:54.580Z,17.13
2023-05-05T18:59:21.965Z,17.15
2023-05-05T19:01:48.654Z,17.09
2023-05-05T19:04:29.525Z,17.05
2023-05-05T19:06:57.394Z,16.95
2023-05-05T19:09:24.088Z,16.85
2023-05-05T19:11:51.109Z,16.86
2023-05-05T19:14:17.960Z,16.77
2023-05-05T19:16:44.908Z,16.73
2023-05-05T19:19:11.667Z,16.86
2023-05-05T19:21:39.013Z,16.79
2023-05-05T19:24:08.361Z,16.73
2023-05-05T19:26:35.311Z,16.68
2023-05-05T19:29:02.049Z,16.62
2023-05-05T19:31:30.910Z,16.60
2023-05-05T19:34:00.902Z,16.60
2023-05-05T19:36:28.230Z,16.59
2023-05-05T19:38:55.994Z,16.53
2023-05-05T19:41:22.924Z,16.29
2023-05-05T19:43:50.179Z,16.28
2023-05-05T19:46:17.327Z,16.25
2023-05-05T19:48:44.490Z,16.26
2023-05-05T19:51:11.135Z,16.30
2023-05-05T19:53:40.162Z,16.20
2023-05-05T19:56:06.971Z,16.21
2023-05-05T19:58:59.438Z,16.11
2023-05-05T20:01:27.892Z,16.05
2023-05-05T20:03:56.489Z,15.97
2023-05-05T20:06:23.905Z,16.02
2023-05-05T20:08:50.811Z,15.91
2023-05-05T20:11:17.949Z,15.93
2023-05-05T20:13:44.695Z,15.86
2023-05-05T20:16:12.082Z,15.83
2023-05-05T20:18:38.931Z,15.79
2023-05-05T20:21:06.099Z,15.66
2023-05-05T20:23:32.941Z,15.50
2023-05-05T20:26:00.844Z,15.33
2023-05-05T20:28:27.630Z,15.16
2023-05-05T20:30:54.326Z,15.21
2023-05-05T20:33:20.996Z,15.25
2023-05-05T20:35:47.697Z,15.12
2023-05-05T20:38:14.542Z,15.12
2023-05-05T20:40:42.150Z,15.11
2023-05-05T20:43:08.847Z,15.17
2023-05-05T20:45:35.756Z,15.05
2023-05-05T20:48:02.478Z,14.73
2023-05-05T20:50:29.157Z,14.77
2023-05-05T20:52:55.961Z,14.72
2023-05-05T20:55:22.723Z,14.66
2023-05-05T20:57:49.451Z,14.51
2023-05-05T21:00:16.488Z,14.68
2023-05-05T21:02:43.437Z,14.54
2023-05-05T21:05:10.429Z,14.48
2023-05-05T21:07:37.232Z,14.67
2023-05-05T21:10:04.782Z,14.45
2023-05-05T21:12:31.674Z,14.27
2023-05-05T21:14:58.945Z,14.10
2023-05-05T21:17:29.464Z,13.93
2023-05-05T21:19:56.980Z,14.06
2023-05-05T21:22:23.856Z,13.96
2023-05-05T21:24:50.862Z,14.09
2023-05-05T21:27:17.757Z,14.06
2023-05-05T21:29:44.468Z,14.06
2023-05-05T21:32:11.692Z,14.20
2023-05-05T21:34:39.411Z,14.17
2023-05-05T21:37:06.669Z,14.27
2023-05-05T21:39:33.695Z,14.32
2023-05-05T21:42:01.052Z,14.21
2023-05-05T21:44:28.411Z,14.19
2023-05-05T21:46:55.588Z,14.31
2023-05-05T21:49:22.441Z,14.45
2023-05-05T21:51:50.658Z,14.43
2023-05-05T21:54:17.449Z,14.48
2023-05-05T21:56:44.218Z,14.28
2023-05-05T21:59:11.241Z,14.25
2023-05-05T22:01:38.005Z,14.25
2023-05-05T22:04:04.802Z,14.21
2023-05-05T22:06:32.645Z,14.29
2023-05-05T22:08:59.566Z,14.11
2023-05-05T22:11:26.412Z,14.16
2023-05-05T22:13:53.122Z,14.20
2023-05-05T22:16:19.928Z,14.08
2023-05-05T22:18:47.007Z,14.07
2023-05-05T22:21:13.889Z,14.16
2023-05-05T22:23:42.084Z,14.03
2023-05-05T22:26:09.327Z,13.99
2023-05-05T22:28:36.528Z,13.90
2023-05-05T22:31:03.253Z,13.91
2023-05-05T22:33:30.089Z,13.96
2023-05-05T22:35:57.237Z,13.87
2023-05-05T22:38:23.946Z,13.87
2023-05-05T22:40:50.713Z,13.77
2023-05-05T22:43:17.583Z,13.71
2023-05-05T22:45:44.497Z,13.71
2023-05-05T22:48:11.455Z,13.71
2023-05-05T22:50:38.185Z,13.72
2023-05-05T22:53:04.900Z,13.58
2023-05-05T22:55:31.650Z,13.46
2023-05-05T22:57:58.297Z,13.39
2023-05-05T23:00:25.330Z,13.37
2023-05-05T23:02:52.373Z,13.43
2023-05-05T23:05:19.049Z,13.47
2023-05-05T23:07:45.941Z,13.52
2023-05-05T23:10:12.647Z,13.46
2023-05-05T23:12:39.426Z,13.35
2023-05-05T23:15:06.818Z,13.31
2023-05-05T23:17:33.613Z,13.37
2023-05-05T23:20:00.326Z,13.40
2023-05-05T23:22:27.060Z,13.35
2023-05-05T23:24:53.819Z,13.27
2023-05-05T23:27:20.445Z,13.36
2023-05-05T23:29:47.199Z,13.37
2023-05-05T23:32:13.903Z,13.46
2023-05-05T23:34:40.549Z,13.54
2023-05-05T23:37:07.230Z,13.32
2023-05-05T23:39:34.747Z,13.29
2023-05-05T23:42:01.557Z,13.28
2023-05-05T23:44:28.157Z,13.42
2023-05-05T23:46:54.846Z,13.40
2023-05-05T23:49:21.631Z,13.24
2023-05-05T23:51:48.400Z,13.21
2023-05-05T23:54:15.031Z,13.16
2023-05-05T23:56:42.811Z,13.13
2023-05-05T23:59:09.531Z,13.14
